createdAt,value
2018-11-07T00:04:04.445Z,66.17
2018-11-07T00:09:08.772Z,66.50
2018-11-07T00:14:12.310Z,65.74
2018-11-07T00:19:15.813Z,66.02
2018-11-07T00:24:19.279Z,66.49
2018-11-07T00:29:22.714Z,66.65
2018-11-07T00:34:26.315Z,66.76
2018-11-07T00:39:29.788Z,66.54
2018-11-07T00:44:33.310Z,66.97
2018-11-07T00:49:36.914Z,66.92
2018-11-07T00:54:40.471Z,66.73
2018-11-07T00:59:43.941Z,67.01
2018-11-07T01:04:47.442Z,67.42
2018-11-07T01:09:50.914Z,67.58
2018-11-07T01:14:54.394Z,68.03
2018-11-07T01:19:57.910Z,67.74
2018-11-07T01:25:01.356Z,68.08
2018-11-07T01:30:06.075Z,67.78
2018-11-07T01:35:09.697Z,68.01
2018-11-07T01:40:14.298Z,68.09
2018-11-07T01:45:17.747Z,68.08
2018-11-07T01:50:21.197Z,68.26
2018-11-07T01:55:24.663Z,68.55
2018-11-07T02:00:28.095Z,69.19
2018-11-07T02:05:31.557Z,68.61
2018-11-07T02:10:34.987Z,69.30
2018-11-07T02:15:38.472Z,69.25
2018-11-07T02:20:41.944Z,68.77
2018-11-07T02:25:45.427Z,69.37
2018-11-07T02:30:48.877Z,68.98
2018-11-07T02:35:52.395Z,69.70
2018-11-07T02:40:55.859Z,69.73
2018-11-07T02:45:59.293Z,69.47
2018-11-07T02:51:02.788Z,69.37
2018-11-07T02:56:06.233Z,69.94
2018-11-07T03:01:09.726Z,69.76
2018-11-07T03:06:13.167Z,69.68
2018-11-07T03:11:16.614Z,69.68
2018-11-07T03:16:20.066Z,70.11
2018-11-07T03:21:23.640Z,69.97
2018-11-07T03:26:27.109Z,70.18
2018-11-07T03:31:30.593Z,69.86
2018-11-07T03:36:34.055Z,69.90
2018-11-07T03:41:37.838Z,70.31
2018-11-07T03:46:41.300Z,70.56
2018-11-07T03:51:44.837Z,70.13
2018-11-07T03:56:48.337Z,70.42
2018-11-07T04:01:51.821Z,70.47
2018-11-07T04:06:55.305Z,70.29
2018-11-07T04:11:58.825Z,70.37
2018-11-07T04:17:02.293Z,70.76
2018-11-07T04:22:05.779Z,70.84
2018-11-07T04:27:09.262Z,70.87
2018-11-07T04:32:12.711Z,70.69
2018-11-07T04:37:16.248Z,70.53
2018-11-07T04:42:19.729Z,70.83
2018-11-07T04:47:23.282Z,70.83
2018-11-07T04:52:26.823Z,71.15
2018-11-07T04:57:30.310Z,70.31
2018-11-07T05:02:34.662Z,70.19
2018-11-07T05:07:38.115Z,70.25
2018-11-07T05:12:41.543Z,70.37
2018-11-07T05:17:45.001Z,69.97
2018-11-07T05:22:48.467Z,70.62
2018-11-07T05:27:51.947Z,70.36
2018-11-07T05:32:55.414Z,69.97
2018-11-07T05:37:58.871Z,69.99
2018-11-07T05:43:02.327Z,70.07
2018-11-07T05:48:05.794Z,69.56
2018-11-07T05:53:09.247Z,69.94
2018-11-07T05:58:12.746Z,69.97
2018-11-07T06:09:02.379Z,69.84
2018-11-07T06:14:12.652Z,69.85
2018-11-07T06:19:16.158Z,69.05
2018-11-07T06:24:19.626Z,69.45
2018-11-07T06:29:23.231Z,69.76
2018-11-07T06:34:26.739Z,69.46
2018-11-07T06:39:30.188Z,69.31
2018-11-07T06:44:33.706Z,69.50
2018-11-07T06:49:37.155Z,69.24
2018-11-07T06:54:40.652Z,69.56
2018-11-07T06:59:44.131Z,69.27
2018-11-07T07:04:47.665Z,69.10
2018-11-07T07:09:51.222Z,69.04
2018-11-07T07:14:54.702Z,69.43
2018-11-07T07:19:58.222Z,69.44
2018-11-07T07:25:01.738Z,69.29
2018-11-07T07:30:08.286Z,68.95
2018-11-07T07:35:12.127Z,69.25
2018-11-07T07:40:16.587Z,69.14
2018-11-07T07:45:20.683Z,69.00
2018-11-07T07:50:24.135Z,68.74
2018-11-07T07:55:27.608Z,69.06
2018-11-07T08:00:31.069Z,68.51
2018-11-07T08:05:34.535Z,68.21
2018-11-07T08:10:38.011Z,66.52
2018-11-07T08:15:41.458Z,67.94
2018-11-07T08:20:44.914Z,68.39
2018-11-07T08:25:48.367Z,68.17
2018-11-07T08:30:51.898Z,68.02
2018-11-07T08:35:55.310Z,67.72
2018-11-07T08:40:58.779Z,67.81
2018-11-07T08:46:02.230Z,67.13
2018-11-07T08:51:05.684Z,66.96
2018-11-07T08:56:09.160Z,67.03
2018-11-07T09:01:12.681Z,66.78
2018-11-07T09:06:16.070Z,64.17
2018-11-07T09:11:19.528Z,67.12
2018-11-07T09:16:22.997Z,66.97
2018-11-07T09:21:26.462Z,67.69
2018-11-07T09:26:29.907Z,68.29
2018-11-07T09:31:33.350Z,68.66
2018-11-07T09:36:36.827Z,68.77
2018-11-07T09:41:40.315Z,68.54
2018-11-07T09:46:44.504Z,69.12
2018-11-07T09:51:49.274Z,68.98
2018-11-07T09:56:53.588Z,69.14
2018-11-07T10:01:57.940Z,69.99
2018-11-07T10:07:02.483Z,70.38
2018-11-07T10:12:06.800Z,70.51
2018-11-07T10:17:10.274Z,70.97
2018-11-07T10:22:13.711Z,69.82
2018-11-07T10:27:17.324Z,70.41
2018-11-07T10:32:20.700Z,70.27
2018-11-07T10:37:32.258Z,70.34
2018-11-07T10:42:27.756Z,70.14
2018-11-07T10:47:31.230Z,69.43
2018-11-07T10:52:34.713Z,69.79
2018-11-07T10:57:39.228Z,70.99
2018-11-07T11:02:47.409Z,71.05
2018-11-07T11:07:51.826Z,70.67
2018-11-07T11:12:56.224Z,70.18
2018-11-07T11:18:00.555Z,70.26
2018-11-07T11:23:04.883Z,69.71
2018-11-07T11:28:09.626Z,70.03
2018-11-07T11:33:13.079Z,69.55
2018-11-07T11:38:16.540Z,69.08
2018-11-07T11:43:20.031Z,68.81
2018-11-07T11:48:23.458Z,68.45
2018-11-07T11:53:26.932Z,67.89
2018-11-07T11:58:30.372Z,67.88
2018-11-07T12:03:33.839Z,67.87
2018-11-07T12:08:37.308Z,67.26
2018-11-07T12:13:41.020Z,67.11
2018-11-07T12:18:44.454Z,67.69
2018-11-07T12:23:47.925Z,67.87
2018-11-07T12:28:51.373Z,65.92
2018-11-07T12:33:54.864Z,64.57
2018-11-07T12:38:58.310Z,64.01
2018-11-07T12:44:01.777Z,62.91
2018-11-07T12:49:05.400Z,63.73
2018-11-07T12:54:08.859Z,63.74
2018-11-07T12:59:12.368Z,63.77
2018-11-07T13:04:15.849Z,63.71
2018-11-07T13:09:19.297Z,63.91
2018-11-07T13:14:22.746Z,64.41
2018-11-07T13:19:26.231Z,64.89
2018-11-07T13:24:29.767Z,64.13
2018-11-07T13:29:33.195Z,64.80
2018-11-07T13:34:36.644Z,65.70
2018-11-07T13:39:40.108Z,64.82
2018-11-07T13:44:43.545Z,65.00
2018-11-07T13:49:47.016Z,65.04
2018-11-07T13:54:50.455Z,65.29
2018-11-07T13:59:53.933Z,65.15
2018-11-07T14:04:57.496Z,65.25
2018-11-07T14:10:00.957Z,65.12
2018-11-07T14:15:05.240Z,64.76
2018-11-07T14:20:08.770Z,65.54
2018-11-07T14:25:12.746Z,65.77
2018-11-07T14:30:17.485Z,66.08
2018-11-07T14:35:21.304Z,66.72
2018-11-07T14:40:24.787Z,66.94
2018-11-07T14:45:28.312Z,66.45
2018-11-07T14:50:31.761Z,67.71
2018-11-07T14:55:35.209Z,67.03
2018-11-07T15:00:38.700Z,67.02
2018-11-07T15:05:42.279Z,66.96
2018-11-07T15:10:45.652Z,67.23
2018-11-07T15:15:49.113Z,67.05
2018-11-07T15:20:52.543Z,67.02
2018-11-07T15:25:56.726Z,67.22
2018-11-07T15:31:00.256Z,67.49
2018-11-07T15:36:03.810Z,67.71
2018-11-07T15:41:07.278Z,66.70
2018-11-07T15:46:11.146Z,66.82
2018-11-07T15:51:15.799Z,66.74
2018-11-07T15:56:19.234Z,66.34
2018-11-07T16:01:22.759Z,66.63
2018-11-07T16:06:26.914Z,66.36
2018-11-07T16:11:30.532Z,66.44
2018-11-07T16:16:34.067Z,66.47
2018-11-07T16:21:37.525Z,67.08
2018-11-07T16:26:41.058Z,66.44
2018-11-07T16:31:44.524Z,66.72
2018-11-07T16:36:48.558Z,66.84
2018-11-07T16:41:52.174Z,66.46
2018-11-07T16:46:55.529Z,66.32
2018-11-07T16:51:58.974Z,66.73
2018-11-07T16:57:02.615Z,66.47
2018-11-07T17:02:06.427Z,66.44
2018-11-07T17:07:11.500Z,65.83
2018-11-07T17:12:15.123Z,63.44
2018-11-07T17:17:18.723Z,62.90
2018-11-07T17:22:22.330Z,62.32
2018-11-07T17:27:25.774Z,62.89
2018-11-07T17:32:29.357Z,62.89
2018-11-07T17:37:33.156Z,61.23
2018-11-07T17:42:37.583Z,61.22
2018-11-07T17:47:41.880Z,62.02
2018-11-07T17:52:45.441Z,61.92
2018-11-07T17:57:48.935Z,61.87
2018-11-07T18:02:53.333Z,62.03
2018-11-07T18:07:57.007Z,62.05
2018-11-07T18:13:00.457Z,61.66
2018-11-07T18:18:03.951Z,61.91
2018-11-07T18:23:07.414Z,61.77
2018-11-07T18:28:10.963Z,61.41
2018-11-07T18:33:14.450Z,61.37
2018-11-07T18:38:18.172Z,61.73
2018-11-07T18:43:22.023Z,61.67
2018-11-07T18:48:26.454Z,61.62
2018-11-07T18:53:29.963Z,62.37
2018-11-07T18:58:33.450Z,63.05
2018-11-07T19:03:36.982Z,62.92
2018-11-07T19:08:40.706Z,62.56
2018-11-07T19:13:44.210Z,62.83
2018-11-07T19:18:47.916Z,62.30
2018-11-07T19:23:51.419Z,63.01
2018-11-07T19:28:54.994Z,62.14
2018-11-07T19:33:58.478Z,63.14
2018-11-07T19:39:01.976Z,62.88
2018-11-07T19:44:05.602Z,62.07
2018-11-07T19:49:09.052Z,62.37
2018-11-07T19:54:12.543Z,62.46
2018-11-07T19:59:17.586Z,62.81
2018-11-07T20:04:21.166Z,62.57
2018-11-07T20:09:24.647Z,62.89
2018-11-07T20:14:28.095Z,63.52
2018-11-07T20:19:31.747Z,63.05
2018-11-07T20:24:35.208Z,63.84
2018-11-07T20:29:38.679Z,63.44
2018-11-07T20:34:42.146Z,63.76
2018-11-07T20:39:45.597Z,63.79
2018-11-07T20:44:49.163Z,64.15
2018-11-07T20:49:52.647Z,63.99
2018-11-07T20:54:56.168Z,64.03
2018-11-07T20:59:59.641Z,64.29
2018-11-07T21:05:03.423Z,63.20
2018-11-07T21:10:09.430Z,64.15
2018-11-07T21:15:14.815Z,64.89
2018-11-07T21:20:18.412Z,64.43
2018-11-07T21:25:21.955Z,65.16
2018-11-07T21:30:25.564Z,65.11
2018-11-07T21:35:29.100Z,64.89
2018-11-07T21:40:32.950Z,65.14
2018-11-07T21:45:36.767Z,64.86
2018-11-07T21:50:40.600Z,65.27
2018-11-07T21:55:44.112Z,65.42
2018-11-07T22:00:48.048Z,65.08
2018-11-07T22:05:51.902Z,65.34
2018-11-07T22:10:55.534Z,65.73
2018-11-07T22:15:58.990Z,65.82
2018-11-07T22:21:02.604Z,65.48
2018-11-07T22:26:06.310Z,65.58
2018-11-07T22:31:09.967Z,65.81
2018-11-07T22:36:13.750Z,65.71
2018-11-07T22:41:17.521Z,65.91
2018-11-07T22:46:21.313Z,65.76
2018-11-07T22:51:24.767Z,65.89
2018-11-07T22:56:28.218Z,66.06
2018-11-07T23:01:36.940Z,66.30
2018-11-07T23:06:40.693Z,66.53
2018-11-07T23:11:45.113Z,66.73
2018-11-07T23:16:48.582Z,66.03
2018-11-07T23:21:52.030Z,66.54
2018-11-07T23:26:55.471Z,66.56
2018-11-07T23:31:58.925Z,66.30
2018-11-07T23:37:02.366Z,66.33
2018-11-07T23:42:05.861Z,66.29
2018-11-07T23:47:09.367Z,66.71
2018-11-07T23:52:16.978Z,66.62
2018-11-07T23:57:20.479Z,66.58
